Time;durP1;ratioP1;P1;durP2;ratioP2;P2;SDS_P1;SDS_P2;PMS_P1;PMS_P2;Temp;Humidity;BMP_temperature;BMP_pressure;BME280_temperature;BME280_humidity;BME280_pressure;Samples;Min_cycle;Max_cycle;Signal;HPM_P1;HPM_P2
2022/02/28 00:02:11;;;;;;;15.15;7.40;;;;;;;;;;5028861;28;20434;-60
2022/02/28 00:04:56;;;;;;;16.23;8.32;;;;;;;;;;5031347;28;20406;-61
2022/02/28 00:07:41;;;;;;;13.48;7.65;;;;;;;;;;5031155;28;20129;-61
2022/02/28 00:10:26;;;;;;;13.73;9.23;;;;;;;;;;5030219;28;20426;-60
2022/02/28 00:13:12;;;;;;;12.40;7.45;;;;;;;;;;5026340;28;20064;-60
2022/02/28 00:15:57;;;;;;;13.55;7.68;;;;;;;;;;5023703;28;20036;-60
2022/02/28 00:18:42;;;;;;;13.57;7.93;;;;;;;;;;5032900;28;20037;-61
2022/02/28 00:21:27;;;;;;;12.52;7.45;;;;;;;;;;5040620;28;20020;-65
2022/02/28 00:24:14;;;;;;;16.45;8.43;;;;;;;;;;5028121;28;20024;-64
2022/02/28 00:26:59;;;;;;;11.90;7.15;;;;;;;;;;5020727;28;20069;-63
2022/02/28 00:29:44;;;;;;;11.80;7.38;;;;;;;;;;5018316;28;20033;-63
2022/02/28 00:32:30;;;;;;;16.25;7.78;;;;;;;;;;5032204;28;20062;-63
2022/02/28 00:35:16;;;;;;;13.57;7.53;;;;;;;;;;5034214;28;20053;-67
2022/02/28 00:38:02;;;;;;;12.10;6.95;;;;;;;;;;5033316;28;20036;-63
2022/02/28 00:40:47;;;;;;;13.85;7.50;;;;;;;;;;5031306;28;20021;-64
2022/02/28 00:43:33;;;;;;;15.85;8.07;;;;;;;;;;5031544;28;20033;-63
2022/02/28 00:46:18;;;;;;;12.23;7.15;;;;;;;;;;5027296;28;20057;-66
2022/02/28 00:49:04;;;;;;;11.75;7.82;;;;;;;;;;5029834;28;20060;-60
2022/02/28 00:51:49;;;;;;;12.88;7.28;;;;;;;;;;5033392;28;20091;-63
2022/02/28 00:54:34;;;;;;;14.82;8.27;;;;;;;;;;5030684;28;20040;-62
2022/02/28 00:57:19;;;;;;;15.20;7.50;;;;;;;;;;5034286;28;20478;-64
2022/02/28 01:00:06;;;;;;;14.82;8.10;;;;;;;;;;5023491;28;20025;-63
2022/02/28 01:02:52;;;;;;;11.60;6.90;;;;;;;;;;5031382;28;20055;-67
2022/02/28 01:05:37;;;;;;;15.35;8.30;;;;;;;;;;5026254;28;20025;-62
2022/02/28 01:08:22;;;;;;;15.60;7.32;;;;;;;;;;5018999;28;20102;-61
2022/02/28 01:11:08;;;;;;;13.65;7.10;;;;;;;;;;5033856;28;20029;-63
2022/02/28 01:13:53;;;;;;;14.43;7.38;;;;;;;;;;5024967;28;20021;-62
2022/02/28 01:16:38;;;;;;;13.73;7.30;;;;;;;;;;5022929;28;20018;-63
2022/02/28 01:19:23;;;;;;;16.33;7.45;;;;;;;;;;5011529;28;20067;-61
2022/02/28 01:22:12;;;;;;;14.25;8.27;;;;;;;;;;5030558;28;20029;-62
2022/02/28 01:24:57;;;;;;;15.45;7.63;;;;;;;;;;5031971;28;20032;-60
2022/02/28 01:27:42;;;;;;;16.23;7.95;;;;;;;;;;5033082;28;20045;-61
2022/02/28 01:30:28;;;;;;;13.15;7.72;;;;;;;;;;5030608;28;20029;-63
2022/02/28 01:33:13;;;;;;;14.70;8.35;;;;;;;;;;5018178;28;20124;-63
2022/02/28 01:35:59;;;;;;;15.02;8.00;;;;;;;;;;5031667;28;20036;-62
2022/02/28 01:38:44;;;;;;;12.05;7.70;;;;;;;;;;5029552;28;20063;-66
2022/02/28 01:41:29;;;;;;;16.55;7.95;;;;;;;;;;5031232;28;20059;-64
2022/02/28 01:44:14;;;;;;;16.00;8.27;;;;;;;;;;5029631;28;20087;-67
2022/02/28 01:47:01;;;;;;;14.93;7.88;;;;;;;;;;5029277;28;20035;-66
2022/02/28 01:49:46;;;;;;;17.00;8.65;;;;;;;;;;5030784;28;20044;-66
2022/02/28 01:52:31;;;;;;;18.52;8.48;;;;;;;;;;5022781;28;20064;-64
2022/02/28 01:55:18;;;;;;;14.25;7.88;;;;;;;;;;5013492;28;20040;-65
2022/02/28 01:58:03;;;;;;;12.30;7.10;;;;;;;;;;5027721;28;20048;-68
2022/02/28 02:00:48;;;;;;;12.82;7.97;;;;;;;;;;5021899;28;20021;-65
2022/02/28 02:03:34;;;;;;;14.75;8.20;;;;;;;;;;5033168;28;20025;-65
2022/02/28 02:06:20;;;;;;;14.60;7.60;;;;;;;;;;5026122;28;20033;-65
2022/02/28 02:09:05;;;;;;;14.82;8.15;;;;;;;;;;5028831;28;20029;-65
2022/02/28 02:11:51;;;;;;;15.07;8.27;;;;;;;;;;5029015;28;20076;-63
2022/02/28 02:14:36;;;;;;;13.25;7.68;;;;;;;;;;5033408;28;20032;-65
2022/02/28 02:17:22;;;;;;;11.52;6.90;;;;;;;;;;5027277;28;20020;-62
2022/02/28 02:20:11;;;;;;;15.40;7.97;;;;;;;;;;5024090;28;20500;-65
2022/02/28 02:23:01;;;;;;;14.85;8.10;;;;;;;;;;5023422;28;20049;-65
2022/02/28 02:25:46;;;;;;;13.60;7.68;;;;;;;;;;5024264;28;20469;-62
2022/02/28 02:28:32;;;;;;;12.93;7.53;;;;;;;;;;5063820;28;20302;-66
2022/02/28 02:31:17;;;;;;;14.82;8.32;;;;;;;;;;5019291;28;20027;-62
2022/02/28 02:34:02;;;;;;;12.73;7.47;;;;;;;;;;5031891;28;20076;-61
2022/02/28 02:36:47;;;;;;;13.77;6.82;;;;;;;;;;5033390;28;20780;-61
2022/02/28 02:39:33;;;;;;;16.15;8.13;;;;;;;;;;5018867;28;20040;-61
2022/02/28 02:42:18;;;;;;;14.52;7.95;;;;;;;;;;5034526;28;20121;-62
2022/02/28 02:45:04;;;;;;;14.52;8.23;;;;;;;;;;5028419;28;20529;-62
2022/02/28 02:47:49;;;;;;;15.15;8.88;;;;;;;;;;5029505;28;20543;-65
2022/02/28 02:50:34;;;;;;;13.32;7.80;;;;;;;;;;5021578;28;20036;-68
2022/02/28 02:53:20;;;;;;;11.70;7.28;;;;;;;;;;5027611;28;20036;-67
2022/02/28 02:56:05;;;;;;;15.02;7.90;;;;;;;;;;5033560;28;20043;-66
2022/02/28 02:58:50;;;;;;;11.25;6.97;;;;;;;;;;5044599;28;20504;-66
2022/02/28 03:01:35;;;;;;;13.23;7.25;;;;;;;;;;5029913;28;20440;-66
2022/02/28 03:04:21;;;;;;;15.48;7.75;;;;;;;;;;5035263;28;20025;-64
2022/02/28 03:07:16;;;;;;;13.98;7.47;;;;;;;;;;5023740;28;20456;-62
2022/02/28 03:10:01;;;;;;;13.93;7.30;;;;;;;;;;5034339;28;20064;-61
2022/02/28 03:12:46;;;;;;;12.18;7.05;;;;;;;;;;5022563;28;20033;-61
2022/02/28 03:15:32;;;;;;;15.90;7.75;;;;;;;;;;5016758;28;20591;-61
2022/02/28 03:18:17;;;;;;;16.00;9.10;;;;;;;;;;5024091;28;20040;-62
2022/02/28 03:21:02;;;;;;;14.77;8.02;;;;;;;;;;5036285;28;20082;-60
2022/02/28 03:23:47;;;;;;;14.15;8.50;;;;;;;;;;5030351;28;20120;-61
2022/02/28 03:26:33;;;;;;;16.02;8.07;;;;;;;;;;5030859;28;20529;-62
2022/02/28 03:29:18;;;;;;;15.73;8.20;;;;;;;;;;5031296;28;20067;-62
2022/02/28 03:32:04;;;;;;;17.08;8.30;;;;;;;;;;5017855;28;20140;-66
2022/02/28 03:34:49;;;;;;;14.68;8.30;;;;;;;;;;5017902;28;20037;-64
2022/02/28 03:37:34;;;;;;;13.25;7.60;;;;;;;;;;5025855;28;20064;-63
2022/02/28 03:40:20;;;;;;;15.98;7.60;;;;;;;;;;5027332;28;20082;-63
2022/02/28 03:43:08;;;;;;;15.05;8.23;;;;;;;;;;5024135;28;20029;-62
2022/02/28 03:45:53;;;;;;;14.52;7.82;;;;;;;;;;5029500;28;20052;-66
2022/02/28 03:48:38;;;;;;;17.75;8.70;;;;;;;;;;5010076;28;20033;-62
2022/02/28 03:51:23;;;;;;;13.10;7.57;;;;;;;;;;5027656;28;20025;-61
2022/02/28 03:54:11;;;;;;;15.18;8.45;;;;;;;;;;5031481;28;20391;-63
2022/02/28 03:56:56;;;;;;;13.38;7.47;;;;;;;;;;5028251;28;20036;-63
2022/02/28 03:59:41;;;;;;;14.73;7.93;;;;;;;;;;5023010;28;20040;-64
2022/02/28 04:02:26;;;;;;;16.40;7.80;;;;;;;;;;5029127;28;20029;-62
2022/02/28 04:05:12;;;;;;;13.55;8.35;;;;;;;;;;5033320;28;20052;-63
2022/02/28 04:07:58;;;;;;;14.82;7.25;;;;;;;;;;5034485;28;20030;-62
2022/02/28 04:10:45;;;;;;;12.18;7.45;;;;;;;;;;5020955;28;20486;-61
2022/02/28 04:13:31;;;;;;;15.35;9.15;;;;;;;;;;5024319;28;20446;-62
2022/02/28 04:16:16;;;;;;;14.55;7.72;;;;;;;;;;5019156;28;20468;-62
2022/02/28 04:19:01;;;;;;;16.58;7.88;;;;;;;;;;5021490;28;20025;-63
2022/02/28 04:22:16;;;;;;;13.52;8.13;;;;;;;;;;5029221;28;20112;-62
2022/02/28 04:25:07;;;;;;;14.35;8.20;;;;;;;;;;5017258;28;20039;-60
2022/02/28 04:27:53;;;;;;;17.00;8.50;;;;;;;;;;5016761;28;20526;-61
2022/02/28 04:30:40;;;;;;;14.02;7.22;;;;;;;;;;5018631;28;20032;-59
2022/02/28 04:33:25;;;;;;;15.50;8.25;;;;;;;;;;5029395;28;20029;-60
2022/02/28 04:36:11;;;;;;;14.40;7.72;;;;;;;;;;5022218;28;20037;-60
2022/02/28 04:39:08;;;;;;;15.52;8.20;;;;;;;;;;5040694;28;20055;-62
2022/02/28 04:41:59;;;;;;;15.77;8.18;;;;;;;;;;5031238;28;20033;-65
2022/02/28 04:44:44;;;;;;;18.45;8.68;;;;;;;;;;5032354;28;20075;-64
2022/02/28 04:47:29;;;;;;;14.27;8.02;;;;;;;;;;5032525;28;20094;-65
2022/02/28 04:50:15;;;;;;;14.45;7.78;;;;;;;;;;5019899;28;20623;-65
2022/02/28 04:53:18;;;;;;;16.33;9.18;;;;;;;;;;5029985;28;20120;-65
2022/02/28 04:56:03;;;;;;;16.52;8.45;;;;;;;;;;5032700;28;20100;-65
2022/02/28 04:59:09;;;;;;;14.85;8.27;;;;;;;;;;5028055;28;20043;-62
2022/02/28 05:01:54;;;;;;;17.90;9.75;;;;;;;;;;5023297;28;20121;-61
2022/02/28 05:04:39;;;;;;;14.55;7.75;;;;;;;;;;5030927;28;20036;-63
2022/02/28 05:07:25;;;;;;;13.38;8.00;;;;;;;;;;5021587;28;20037;-62
2022/02/28 05:10:16;;;;;;;16.67;8.68;;;;;;;;;;5034538;28;20088;-62
2022/02/28 05:13:01;;;;;;;16.10;8.45;;;;;;;;;;5032932;28;20770;-65
2022/02/28 05:15:53;;;;;;;16.80;8.35;;;;;;;;;;5030871;28;20029;-61
2022/02/28 05:18:38;;;;;;;14.98;8.45;;;;;;;;;;5020034;28;20467;-64
2022/02/28 05:21:23;;;;;;;16.15;8.60;;;;;;;;;;5030269;28;20037;-64
2022/02/28 05:24:08;;;;;;;15.65;8.38;;;;;;;;;;5035362;28;20028;-65
2022/02/28 05:26:54;;;;;;;15.88;9.40;;;;;;;;;;5025331;28;20025;-64
2022/02/28 05:29:39;;;;;;;13.05;7.38;;;;;;;;;;5021376;28;20033;-64
2022/02/28 05:32:25;;;;;;;14.98;8.13;;;;;;;;;;5020643;28;20029;-65
2022/02/28 05:35:11;;;;;;;17.65;9.68;;;;;;;;;;5030835;28;20037;-63
2022/02/28 05:37:56;;;;;;;13.27;8.15;;;;;;;;;;5025640;28;20387;-65
2022/02/28 05:40:46;;;;;;;12.63;7.72;;;;;;;;;;5013917;28;20025;-65
2022/02/28 05:43:51;;;;;;;13.90;8.48;;;;;;;;;;5027049;28;20108;-68
2022/02/28 05:46:40;;;;;;;15.70;8.25;;;;;;;;;;5031990;28;20036;-66
2022/02/28 05:49:25;;;;;;;12.63;8.15;;;;;;;;;;5033330;28;20086;-66
2022/02/28 05:52:10;;;;;;;16.42;8.23;;;;;;;;;;5033799;28;20082;-60
2022/02/28 05:54:56;;;;;;;15.35;8.55;;;;;;;;;;5035407;28;20025;-61
2022/02/28 05:57:48;;;;;;;15.98;9.40;;;;;;;;;;5035103;28;20025;-62
2022/02/28 06:00:36;;;;;;;16.05;8.75;;;;;;;;;;5024101;28;20030;-60
2022/02/28 06:03:22;;;;;;;16.42;8.45;;;;;;;;;;5035473;28;20040;-61
2022/02/28 06:06:07;;;;;;;16.55;8.50;;;;;;;;;;5041848;28;20036;-61
2022/02/28 06:08:53;;;;;;;17.30;9.45;;;;;;;;;;5036452;28;20040;-61
2022/02/28 06:11:38;;;;;;;18.15;10.20;;;;;;;;;;5029267;28;20025;-63
2022/02/28 06:14:23;;;;;;;14.13;8.90;;;;;;;;;;5028356;28;20429;-62
2022/02/28 06:17:08;;;;;;;15.07;8.48;;;;;;;;;;5021765;28;20022;-63
2022/02/28 06:19:54;;;;;;;16.30;9.60;;;;;;;;;;5030687;28;20171;-63
2022/02/28 06:22:39;;;;;;;19.15;9.40;;;;;;;;;;5027454;28;20151;-63
2022/02/28 06:25:24;;;;;;;17.15;8.52;;;;;;;;;;5021984;28;20476;-64
2022/02/28 06:28:10;;;;;;;15.48;8.05;;;;;;;;;;5034221;28;20164;-63
2022/02/28 06:30:55;;;;;;;19.13;9.45;;;;;;;;;;5029838;28;20048;-63
2022/02/28 06:33:40;;;;;;;14.77;8.30;;;;;;;;;;5030617;28;20599;-61
2022/02/28 06:36:25;;;;;;;16.23;9.32;;;;;;;;;;5030053;28;20587;-65
2022/02/28 06:39:11;;;;;;;15.85;9.05;;;;;;;;;;5029769;28;20032;-63
2022/02/28 06:41:56;;;;;;;16.85;9.35;;;;;;;;;;5024171;28;20598;-64
2022/02/28 06:44:41;;;;;;;21.00;10.52;;;;;;;;;;5029251;28;20397;-64
2022/02/28 06:47:27;;;;;;;19.17;9.95;;;;;;;;;;5032896;28;20037;-66
2022/02/28 06:50:12;;;;;;;19.83;10.57;;;;;;;;;;5031459;28;21272;-61
2022/02/28 06:52:57;;;;;;;22.85;10.95;;;;;;;;;;5036704;28;20029;-63
2022/02/28 06:55:44;;;;;;;20.95;10.38;;;;;;;;;;5023277;28;20502;-63
2022/02/28 06:58:32;;;;;;;18.75;10.43;;;;;;;;;;5038616;28;20036;-60
2022/02/28 07:01:17;;;;;;;17.83;10.43;;;;;;;;;;5027917;28;20029;-63
2022/02/28 07:04:03;;;;;;;19.52;10.82;;;;;;;;;;5031505;28;20040;-62
2022/02/28 07:06:48;;;;;;;23.00;10.98;;;;;;;;;;5027088;28;20539;-66
2022/02/28 07:09:34;;;;;;;21.00;10.80;;;;;;;;;;5034856;28;20040;-65
2022/02/28 07:12:19;;;;;;;18.27;11.07;;;;;;;;;;5030463;28;20025;-68
2022/02/28 07:15:05;;;;;;;17.90;10.15;;;;;;;;;;5026930;28;20029;-63
2022/02/28 07:17:50;;;;;;;23.00;11.23;;;;;;;;;;5024441;28;20044;-62
2022/02/28 07:20:36;;;;;;;22.30;11.90;;;;;;;;;;5016493;28;20020;-62
2022/02/28 07:23:21;;;;;;;19.85;11.73;;;;;;;;;;5021113;28;20079;-62
2022/02/28 07:26:07;;;;;;;22.65;12.98;;;;;;;;;;5033025;28;20051;-60
2022/02/28 07:28:52;;;;;;;20.35;13.15;;;;;;;;;;5027050;28;20056;-63
2022/02/28 07:31:37;;;;;;;20.55;13.45;;;;;;;;;;5031023;28;20050;-65
2022/02/28 07:34:23;;;;;;;24.92;13.60;;;;;;;;;;5027017;28;20177;-66
2022/02/28 07:37:08;;;;;;;21.42;12.52;;;;;;;;;;5031300;28;20032;-63
2022/02/28 07:39:53;;;;;;;27.58;13.07;;;;;;;;;;5031322;28;20668;-65
2022/02/28 07:42:39;;;;;;;23.23;12.52;;;;;;;;;;5034530;28;20056;-67
2022/02/28 07:45:24;;;;;;;23.85;13.13;;;;;;;;;;5031237;28;20053;-63
2022/02/28 07:48:09;;;;;;;20.92;12.27;;;;;;;;;;5026818;28;20029;-63
2022/02/28 07:50:54;;;;;;;20.10;12.02;;;;;;;;;;5033859;28;20044;-64
2022/02/28 07:53:40;;;;;;;21.90;12.65;;;;;;;;;;5025557;28;20020;-64
2022/02/28 07:56:25;;;;;;;24.58;12.38;;;;;;;;;;5028061;28;20603;-62
2022/02/28 07:59:10;;;;;;;24.98;12.27;;;;;;;;;;5025709;28;20108;-64
2022/02/28 08:01:56;;;;;;;23.50;12.05;;;;;;;;;;5030994;28;20065;-67
2022/02/28 08:04:41;;;;;;;26.00;12.43;;;;;;;;;;5017653;28;20380;-60
2022/02/28 08:07:26;;;;;;;24.73;12.27;;;;;;;;;;5015044;28;20025;-60
2022/02/28 08:10:11;;;;;;;26.52;13.50;;;;;;;;;;5026965;28;20032;-62
2022/02/28 08:12:57;;;;;;;20.92;11.85;;;;;;;;;;5027039;28;20032;-61
2022/02/28 08:15:42;;;;;;;22.42;13.52;;;;;;;;;;5041785;28;20044;-63
2022/02/28 08:18:28;;;;;;;20.95;12.70;;;;;;;;;;5030496;28;20555;-61
2022/02/28 08:21:13;;;;;;;24.67;14.45;;;;;;;;;;5017097;28;20108;-61
2022/02/28 08:23:58;;;;;;;23.67;14.52;;;;;;;;;;5033349;28;20035;-65
2022/02/28 08:26:43;;;;;;;30.13;14.95;;;;;;;;;;5019992;28;20472;-65
2022/02/28 08:29:29;;;;;;;23.83;14.68;;;;;;;;;;5025772;28;20560;-65
2022/02/28 08:32:14;;;;;;;24.77;13.63;;;;;;;;;;5029531;28;20168;-63
2022/02/28 08:34:59;;;;;;;22.98;14.82;;;;;;;;;;5034980;28;20056;-63
2022/02/28 08:37:46;;;;;;;23.88;14.00;;;;;;;;;;5019098;28;20037;-63
2022/02/28 08:40:31;;;;;;;23.67;13.20;;;;;;;;;;5031444;28;20316;-63
2022/02/28 08:43:16;;;;;;;22.58;14.07;;;;;;;;;;5030454;28;20044;-62
2022/02/28 08:46:02;;;;;;;23.63;13.65;;;;;;;;;;5029678;28;20036;-63
2022/02/28 08:49:08;;;;;;;21.17;12.30;;;;;;;;;;5028296;28;20045;-63
2022/02/28 08:51:54;;;;;;;20.13;11.98;;;;;;;;;;5020107;28;20060;-66
2022/02/28 08:54:40;;;;;;;24.15;13.20;;;;;;;;;;5030673;28;20029;-61
2022/02/28 08:57:25;;;;;;;20.77;12.40;;;;;;;;;;5029157;28;20037;-63
2022/02/28 09:00:12;;;;;;;22.48;12.85;;;;;;;;;;5028532;28;20029;-61
2022/02/28 09:02:57;;;;;;;22.50;13.25;;;;;;;;;;5029042;28;20457;-64
2022/02/28 09:05:43;;;;;;;22.85;13.55;;;;;;;;;;5027309;28;20052;-64
2022/02/28 09:08:28;;;;;;;21.70;12.90;;;;;;;;;;5029228;28;20029;-63
2022/02/28 09:11:15;;;;;;;20.38;13.25;;;;;;;;;;5029116;28;20029;-61
2022/02/28 09:14:00;;;;;;;18.48;12.68;;;;;;;;;;5030097;28;20032;-63
2022/02/28 09:16:46;;;;;;;21.58;12.40;;;;;;;;;;5024089;28;20041;-63
2022/02/28 09:19:31;;;;;;;19.60;11.95;;;;;;;;;;5026336;28;20028;-62
2022/02/28 09:22:18;;;;;;;20.30;12.55;;;;;;;;;;5030483;28;20029;-61
2022/02/28 09:25:03;;;;;;;23.73;13.25;;;;;;;;;;5025440;28;20044;-59
2022/02/28 09:27:48;;;;;;;24.88;12.90;;;;;;;;;;5031987;28;20029;-62
2022/02/28 09:30:34;;;;;;;18.92;11.93;;;;;;;;;;5031589;28;20132;-60
2022/02/28 09:33:19;;;;;;;22.65;12.27;;;;;;;;;;5036775;28;20484;-62
2022/02/28 09:36:07;;;;;;;22.55;11.25;;;;;;;;;;5035404;28;20028;-61
2022/02/28 09:38:52;;;;;;;19.20;11.75;;;;;;;;;;5028281;28;20108;-62
2022/02/28 09:41:38;;;;;;;18.48;10.57;;;;;;;;;;5024828;28;20025;-62
2022/02/28 09:44:24;;;;;;;19.65;11.05;;;;;;;;;;5029428;28;20021;-63
2022/02/28 09:47:09;;;;;;;18.52;10.50;;;;;;;;;;5051378;28;20036;-62
2022/02/28 09:49:54;;;;;;;15.48;9.52;;;;;;;;;;5037084;28;20036;-62
2022/02/28 09:52:40;;;;;;;18.58;10.68;;;;;;;;;;5038324;28;20043;-64
2022/02/28 09:55:25;;;;;;;16.25;9.73;;;;;;;;;;5036381;28;20487;-63
2022/02/28 09:58:10;;;;;;;16.27;9.43;;;;;;;;;;5036332;28;20039;-63
2022/02/28 10:00:57;;;;;;;16.35;8.82;;;;;;;;;;5036383;28;20041;-64
2022/02/28 10:03:42;;;;;;;15.82;10.10;;;;;;;;;;5031328;28;20032;-62
2022/02/28 10:06:27;;;;;;;14.25;9.60;;;;;;;;;;5035883;28;20029;-63
2022/02/28 10:09:17;;;;;;;14.65;9.07;;;;;;;;;;5035631;28;20051;-63
2022/02/28 10:12:02;;;;;;;14.57;8.77;;;;;;;;;;5030215;28;20517;-64
2022/02/28 10:14:47;;;;;;;13.60;8.70;;;;;;;;;;5023057;28;20025;-62
2022/02/28 10:17:42;;;;;;;12.02;8.27;;;;;;;;;;5034528;28;20017;-63
2022/02/28 10:20:29;;;;;;;12.90;8.52;;;;;;;;;;5034222;28;20085;-61
2022/02/28 10:23:16;;;;;;;11.90;9.23;;;;;;;;;;5050413;28;20028;-65
2022/02/28 10:26:01;;;;;;;12.68;8.75;;;;;;;;;;5031503;28;20041;-64
2022/02/28 10:28:46;;;;;;;12.98;9.23;;;;;;;;;;5036588;28;20037;-67
2022/02/28 10:31:39;;;;;;;13.00;9.65;;;;;;;;;;5033867;28;20036;-63
2022/02/28 10:34:26;;;;;;;13.25;10.05;;;;;;;;;;5036135;28;20056;-62
2022/02/28 10:37:11;;;;;;;13.05;9.88;;;;;;;;;;5035989;28;20021;-63
2022/02/28 10:40:00;;;;;;;15.30;10.55;;;;;;;;;;5037231;28;20387;-65
2022/02/28 10:42:45;;;;;;;;;;;;;;;;;;5034848;28;20107;-63
2022/02/28 10:45:34;;;;;;;16.17;11.32;;;;;;;;;;5028288;28;19916;-62
2022/02/28 10:48:20;;;;;;;19.15;17.48;;;;;;;;;;5034749;28;20035;-65
2022/02/28 10:51:14;;;;;;;16.35;12.45;;;;;;;;;;5034283;28;20044;-63
2022/02/28 10:54:13;;;;;;;15.93;13.38;;;;;;;;;;5031091;28;20052;-66
2022/02/28 10:57:09;;;;;;;15.02;11.70;;;;;;;;;;5047552;28;20029;-64
2022/02/28 10:59:55;;;;;;;13.60;11.70;;;;;;;;;;5026322;28;20033;-64
2022/02/28 11:02:40;;;;;;;13.63;9.75;;;;;;;;;;5047086;28;20029;-63
2022/02/28 11:05:27;;;;;;;17.75;10.73;;;;;;;;;;5027860;28;20047;-63
2022/02/28 11:08:16;;;;;;;13.30;9.65;;;;;;;;;;5028757;28;20037;-62
2022/02/28 11:11:09;;;;;;;15.88;10.02;;;;;;;;;;5028867;28;20048;-61
2022/02/28 11:13:55;;;;;;;17.02;9.93;;;;;;;;;;5027578;28;20033;-62
2022/02/28 11:16:41;;;;;;;13.13;9.02;;;;;;;;;;5025223;28;20029;-66
2022/02/28 11:19:26;;;;;;;16.52;10.48;;;;;;;;;;5024570;28;20025;-63
2022/02/28 11:22:11;;;;;;;18.67;11.57;;;;;;;;;;5030074;28;20087;-61
2022/02/28 11:24:57;;;;;;;18.13;10.85;;;;;;;;;;5035305;28;20037;-67
2022/02/28 11:27:43;;;;;;;18.98;11.30;;;;;;;;;;5028951;28;20037;-66
2022/02/28 11:30:29;;;;;;;17.38;10.18;;;;;;;;;;5029798;28;20555;-67
2022/02/28 11:33:16;;;;;;;21.65;14.57;;;;;;;;;;5025460;28;20084;-72
2022/02/28 11:36:02;;;;;;;19.77;13.48;;;;;;;;;;5030153;28;20039;-71
2022/02/28 11:38:47;;;;;;;21.20;12.32;;;;;;;;;;5031352;28;20025;-70
2022/02/28 11:41:32;;;;;;;16.98;10.90;;;;;;;;;;5028929;28;20044;-67
2022/02/28 11:44:19;;;;;;;16.48;11.63;;;;;;;;;;5030319;28;20403;-62
2022/02/28 11:47:06;;;;;;;16.05;11.18;;;;;;;;;;5030560;28;20040;-64
2022/02/28 11:49:51;;;;;;;15.25;10.50;;;;;;;;;;5027812;28;20063;-64
2022/02/28 11:52:37;;;;;;;15.07;10.13;;;;;;;;;;5035291;28;20468;-62
2022/02/28 11:55:29;;;;;;;16.70;10.00;;;;;;;;;;5026626;28;20392;-65
2022/02/28 11:58:15;;;;;;;16.15;10.25;;;;;;;;;;5026939;28;20527;-64
2022/02/28 12:01:10;;;;;;;14.45;9.52;;;;;;;;;;5029006;28;20033;-66
2022/02/28 12:04:07;;;;;;;15.68;9.82;;;;;;;;;;5043431;28;20025;-64
2022/02/28 12:06:54;;;;;;;16.60;9.80;;;;;;;;;;5050090;28;20413;-62
2022/02/28 12:09:40;;;;;;;15.48;9.48;;;;;;;;;;5024715;28;20040;-68
2022/02/28 12:12:27;;;;;;;14.27;9.63;;;;;;;;;;5029331;28;20180;-63
2022/02/28 12:15:13;;;;;;;14.98;9.40;;;;;;;;;;5033147;28;20147;-63
2022/02/28 12:18:02;;;;;;;14.20;9.20;;;;;;;;;;5032947;28;20560;-62
2022/02/28 12:20:48;;;;;;;;;;;;;;;;;;5025385;28;20029;-62
2022/02/28 12:23:43;;;;;;;15.30;8.75;;;;;;;;;;5042462;28;19909;-65
2022/02/28 12:26:28;;;;;;;13.38;7.95;;;;;;;;;;5023740;28;20040;-63
2022/02/28 12:29:15;;;;;;;18.45;7.88;;;;;;;;;;5016242;28;20045;-67
2022/02/28 12:32:00;;;;;;;15.05;8.52;;;;;;;;;;5027654;28;20033;-64
2022/02/28 12:34:55;;;;;;;15.48;8.43;;;;;;;;;;5033366;28;20355;-67
2022/02/28 12:37:40;;;;;;;14.32;8.48;;;;;;;;;;5034760;28;20021;-64
2022/02/28 12:40:28;;;;;;;12.30;8.93;;;;;;;;;;5030070;28;20024;-67
2022/02/28 12:43:20;;;;;;;16.83;8.43;;;;;;;;;;5033717;28;20025;-67
2022/02/28 12:46:25;;;;;;;12.82;8.45;;;;;;;;;;5030430;28;20044;-66
2022/02/28 12:49:12;;;;;;;13.65;8.40;;;;;;;;;;5039882;28;20038;-65
2022/02/28 12:51:58;;;;;;;15.15;8.07;;;;;;;;;;5032109;28;20108;-66
2022/02/28 12:54:43;;;;;;;15.70;8.60;;;;;;;;;;5026799;28;20581;-66
2022/02/28 12:57:28;;;;;;;14.35;8.18;;;;;;;;;;5029941;28;20074;-67
2022/02/28 13:00:14;;;;;;;14.13;8.43;;;;;;;;;;5028882;28;20027;-66
2022/02/28 13:03:03;;;;;;;13.43;8.40;;;;;;;;;;5026335;28;20038;-64
2022/02/28 13:05:55;;;;;;;16.88;8.90;;;;;;;;;;5026117;28;20130;-64
2022/02/28 13:08:44;;;;;;;12.32;8.23;;;;;;;;;;5032370;28;20446;-65
2022/02/28 13:11:30;;;;;;;15.65;7.65;;;;;;;;;;5021142;28;20020;-66
2022/02/28 13:14:17;;;;;;;10.85;6.90;;;;;;;;;;5026154;28;20103;-64
2022/02/28 13:17:02;;;;;;;13.27;8.38;;;;;;;;;;5038064;28;20360;-68
2022/02/28 13:19:48;;;;;;;14.52;8.50;;;;;;;;;;5019951;28;20083;-68
2022/02/28 13:22:33;;;;;;;12.95;7.90;;;;;;;;;;5031109;28;20619;-67
2022/02/28 13:25:18;;;;;;;13.32;8.15;;;;;;;;;;5033552;28;20032;-71
2022/02/28 13:28:03;;;;;;;14.30;7.90;;;;;;;;;;5025365;28;20041;-73
2022/02/28 13:30:49;;;;;;;13.77;8.43;;;;;;;;;;5030362;28;20120;-71
2022/02/28 13:33:36;;;;;;;14.25;7.68;;;;;;;;;;5010047;28;20044;-64
2022/02/28 13:36:21;;;;;;;15.30;8.98;;;;;;;;;;5026223;28;20535;-64
2022/02/28 13:39:34;;;;;;;12.15;7.38;;;;;;;;;;5023141;28;20060;-63
2022/02/28 13:42:49;;;;;;;17.08;8.70;;;;;;;;;;5033084;28;20044;-65
2022/02/28 13:48:55;;;;;;;14.20;8.43;;;;;;;;;;4989497;28;20083;-64
2022/02/28 13:51:44;;;;;;;13.90;8.60;;;;;;;;;;5016213;28;20025;-67
2022/02/28 13:54:32;;;;;;;12.90;8.00;;;;;;;;;;5027399;28;20049;-64
2022/02/28 13:57:43;;;;;;;18.85;7.85;;;;;;;;;;5025292;28;20041;-62
2022/02/28 14:00:29;;;;;;;14.15;8.07;;;;;;;;;;5009583;28;20033;-64
2022/02/28 14:03:24;;;;;;;16.48;8.70;;;;;;;;;;5036109;28;20025;-62
2022/02/28 14:06:22;;;;;;;12.57;7.97;;;;;;;;;;5023776;28;20491;-63
2022/02/28 14:09:08;;;;;;;15.45;7.65;;;;;;;;;;5023429;28;20446;-64
2022/02/28 14:11:53;;;;;;;12.80;7.45;;;;;;;;;;5036655;28;20033;-66
2022/02/28 14:14:38;;;;;;;14.10;9.05;;;;;;;;;;5029896;28;20112;-65
2022/02/28 14:17:23;;;;;;;13.98;8.55;;;;;;;;;;5019508;28;20053;-65
2022/02/28 14:20:13;;;;;;;13.95;8.77;;;;;;;;;;5030450;28;20479;-67
2022/02/28 14:23:07;;;;;;;13.43;7.53;;;;;;;;;;5032464;28;20569;-64
2022/02/28 14:26:05;;;;;;;12.05;7.90;;;;;;;;;;5034965;28;20451;-64
2022/02/28 14:28:50;;;;;;;10.45;7.40;;;;;;;;;;5033505;28;20037;-61
2022/02/28 14:31:47;;;;;;;12.65;7.60;;;;;;;;;;5033342;28;20102;-67
2022/02/28 14:34:37;;;;;;;11.40;7.32;;;;;;;;;;5034039;28;20033;-69
2022/02/28 14:37:23;;;;;;;12.90;7.03;;;;;;;;;;5032940;28;20108;-65
2022/02/28 14:40:09;;;;;;;14.25;8.70;;;;;;;;;;5035463;28;20424;-70
2022/02/28 14:42:54;;;;;;;13.98;8.35;;;;;;;;;;5032480;28;20043;-66
2022/02/28 14:45:40;;;;;;;18.60;8.60;;;;;;;;;;5030690;28;20048;-61
2022/02/28 14:48:25;;;;;;;12.32;8.40;;;;;;;;;;5031342;28;20475;-65
2022/02/28 14:51:11;;;;;;;14.82;8.68;;;;;;;;;;5032153;28;20395;-63
2022/02/28 14:53:56;;;;;;;14.95;8.70;;;;;;;;;;5034575;28;20035;-62
2022/02/28 14:56:45;;;;;;;13.80;8.05;;;;;;;;;;5034157;28;20122;-62
2022/02/28 14:59:32;;;;;;;11.17;7.37;;;;;;;;;;5022167;28;20438;-65
2022/02/28 15:02:17;;;;;;;11.95;7.68;;;;;;;;;;5034547;28;20291;-62
2022/02/28 15:05:02;;;;;;;12.00;7.68;;;;;;;;;;5032414;28;20179;-66
2022/02/28 15:07:48;;;;;;;12.88;7.70;;;;;;;;;;5032382;28;20653;-64
2022/02/28 15:10:34;;;;;;;14.25;8.38;;;;;;;;;;5019951;28;20162;-67
2022/02/28 15:13:21;;;;;;;14.02;8.43;;;;;;;;;;5035222;28;20400;-64
2022/02/28 15:16:07;;;;;;;14.18;8.00;;;;;;;;;;5028378;28;20037;-61
2022/02/28 15:18:52;;;;;;;12.63;7.90;;;;;;;;;;5050364;28;20086;-61
2022/02/28 15:21:37;;;;;;;14.40;8.10;;;;;;;;;;5033575;28;20037;-65
2022/02/28 15:24:23;;;;;;;12.80;8.15;;;;;;;;;;5032564;28;20139;-62
2022/02/28 15:27:08;;;;;;;14.10;8.80;;;;;;;;;;5014681;28;20029;-66
2022/02/28 15:29:53;;;;;;;9.93;6.97;;;;;;;;;;5026819;28;20399;-66
2022/02/28 15:32:39;;;;;;;12.50;7.60;;;;;;;;;;5026126;28;20053;-65
2022/02/28 15:35:25;;;;;;;13.45;8.10;;;;;;;;;;5016478;28;20049;-66
2022/02/28 15:38:10;;;;;;;14.20;7.80;;;;;;;;;;5028129;28;20033;-67
2022/02/28 15:40:55;;;;;;;14.73;7.13;;;;;;;;;;5020267;28;20111;-62
2022/02/28 15:43:41;;;;;;;13.85;7.47;;;;;;;;;;5034518;28;20083;-62
2022/02/28 15:46:26;;;;;;;11.07;7.80;;;;;;;;;;5027473;28;20036;-68
2022/02/28 15:49:13;;;;;;;12.68;7.60;;;;;;;;;;5028527;28;20041;-64
2022/02/28 15:51:59;;;;;;;14.07;7.80;;;;;;;;;;5030608;28;20034;-64
2022/02/28 15:54:44;;;;;;;11.57;7.07;;;;;;;;;;5034955;28;20043;-65
2022/02/28 15:57:29;;;;;;;10.13;6.25;;;;;;;;;;5012751;28;20021;-65
2022/02/28 16:00:15;;;;;;;13.98;7.20;;;;;;;;;;5030043;28;20037;-63
2022/02/28 16:03:01;;;;;;;14.27;7.15;;;;;;;;;;5039979;28;20076;-63
2022/02/28 16:05:49;;;;;;;10.52;7.30;;;;;;;;;;5039355;28;20104;-64
2022/02/28 16:08:34;;;;;;;16.00;7.45;;;;;;;;;;5026472;28;20028;-62
2022/02/28 16:11:20;;;;;;;13.45;8.05;;;;;;;;;;5017913;28;20384;-63
2022/02/28 16:14:05;;;;;;;12.70;7.07;;;;;;;;;;5017042;28;20116;-63
2022/02/28 16:16:50;;;;;;;12.18;8.25;;;;;;;;;;5032535;28;20502;-63
2022/02/28 16:19:36;;;;;;;15.30;6.85;;;;;;;;;;5034096;28;20067;-65
2022/02/28 16:22:21;;;;;;;10.88;6.05;;;;;;;;;;5029852;28;20022;-63
2022/02/28 16:25:12;;;;;;;18.70;8.82;;;;;;;;;;5027218;28;20127;-64